createdAt,value
2018-08-20T12:07:37.076Z,27.85
2018-08-20T12:10:06.642Z,27.86
2018-08-20T12:12:34.834Z,28.00
2018-08-20T12:15:03.031Z,28.11
2018-08-20T12:17:31.228Z,27.95
2018-08-20T12:19:59.454Z,27.95
2018-08-20T12:22:27.649Z,28.04
2018-08-20T12:24:55.826Z,28.41
2018-08-20T12:27:24.007Z,28.22
2018-08-20T12:29:52.203Z,27.70
2018-08-20T12:32:20.383Z,28.05
2018-08-20T12:34:48.579Z,28.14
2018-08-20T12:37:16.775Z,28.30
2018-08-20T12:39:44.982Z,28.59
2018-08-20T12:42:13.182Z,28.66
2018-08-20T12:44:41.398Z,28.91
2018-08-20T12:47:09.663Z,28.47
2018-08-20T12:49:37.918Z,28.24
2018-08-20T12:52:06.834Z,28.40
2018-08-20T12:54:35.035Z,28.51
2018-08-20T12:57:03.248Z,28.35
2018-08-20T12:59:31.455Z,28.46
2018-08-20T13:01:59.667Z,28.46
2018-08-20T13:04:27.859Z,28.34
2018-08-20T13:06:56.135Z,28.70
2018-08-20T13:09:24.334Z,28.63
2018-08-20T13:11:52.527Z,28.78
2018-08-20T13:14:20.741Z,28.97
2018-08-20T13:16:48.979Z,29.01
2018-08-20T13:19:17.234Z,29.11
2018-08-20T13:21:45.419Z,28.71
2018-08-20T13:24:13.615Z,28.85
2018-08-20T13:26:41.795Z,28.92
2018-08-20T13:29:09.990Z,29.02
2018-08-20T13:31:38.195Z,29.18
2018-08-20T13:34:06.924Z,29.13
2018-08-20T13:36:35.111Z,29.04
2018-08-20T13:39:03.539Z,28.80
2018-08-20T13:41:31.748Z,29.05
2018-08-20T13:43:59.948Z,29.19
2018-08-20T13:46:28.115Z,29.09
2018-08-20T13:48:56.330Z,29.16
2018-08-20T13:51:24.542Z,29.16
2018-08-20T13:53:52.751Z,29.23
2018-08-20T13:56:20.919Z,28.91
2018-08-20T13:58:49.310Z,29.00
2018-08-20T14:01:17.542Z,28.77
2018-08-20T14:03:45.717Z,28.68
2018-08-20T14:06:13.903Z,28.99
2018-08-20T14:08:42.102Z,29.20
2018-08-20T14:11:10.300Z,29.14
2018-08-20T14:13:38.498Z,29.12
2018-08-20T14:16:06.735Z,29.04
2018-08-20T14:18:34.927Z,29.12
2018-08-20T14:21:11.067Z,29.13
2018-08-20T14:23:40.883Z,29.22
2018-08-20T14:26:09.071Z,29.17
2018-08-20T14:28:37.270Z,29.22
2018-08-20T14:31:05.551Z,29.06
2018-08-20T14:33:33.802Z,29.01
2018-08-20T14:36:02.138Z,29.30
2018-08-20T14:38:30.545Z,29.14
2018-08-20T14:40:58.827Z,29.07
2018-08-20T14:43:27.162Z,29.13
2018-08-20T14:46:00.824Z,29.34
2018-08-20T14:48:29.111Z,29.43
2018-08-20T14:50:57.563Z,29.70
2018-08-20T14:53:26.121Z,29.61
2018-08-20T14:55:54.418Z,29.68
2018-08-20T14:58:22.794Z,29.51
2018-08-20T15:00:50.983Z,29.65
2018-08-20T15:03:19.214Z,29.63
2018-08-20T15:05:47.431Z,29.82
2018-08-20T15:08:15.641Z,29.83
2018-08-20T15:10:43.826Z,29.24
2018-08-20T15:13:12.303Z,29.04
2018-08-20T15:15:40.697Z,29.03
2018-08-20T15:18:08.711Z,29.42
2018-08-20T15:20:36.933Z,29.09
2018-08-20T15:23:05.131Z,29.10
2018-08-20T15:25:33.307Z,29.08
2018-08-20T15:28:01.590Z,28.84
2018-08-20T15:30:29.821Z,29.19
2018-08-20T15:32:58.018Z,29.13
2018-08-20T15:35:26.680Z,28.99
2018-08-20T15:37:54.954Z,29.31
2018-08-20T15:40:23.144Z,29.08
2018-08-20T15:42:51.399Z,29.70
2018-08-20T15:45:19.731Z,29.38
2018-08-20T15:47:47.977Z,28.82
2018-08-20T15:50:16.223Z,28.79
2018-08-20T15:52:44.459Z,29.23
2018-08-20T15:55:12.663Z,29.39
2018-08-20T15:57:40.865Z,29.35
2018-08-20T16:00:10.098Z,28.96
2018-08-20T16:02:38.918Z,28.93
2018-08-20T16:05:07.196Z,28.54
2018-08-20T16:07:35.391Z,28.50
2018-08-20T16:10:03.612Z,28.54
2018-08-20T16:12:31.806Z,28.26
2018-08-20T16:15:00.016Z,28.33
2018-08-20T16:17:28.217Z,28.20
2018-08-20T16:19:56.403Z,28.23
2018-08-20T16:22:24.607Z,28.22
2018-08-20T16:24:52.799Z,28.05
2018-08-20T16:27:21.010Z,28.10
2018-08-20T16:29:49.207Z,28.06
2018-08-20T16:32:18.286Z,27.84
2018-08-20T16:34:46.474Z,27.95
2018-08-20T16:37:14.695Z,27.86
2018-08-20T16:39:42.988Z,28.00
2018-08-20T16:42:11.183Z,27.98
2018-08-20T16:44:39.401Z,27.95
2018-08-20T16:47:07.612Z,27.99
2018-08-20T16:49:35.823Z,27.93
2018-08-20T16:52:04.051Z,27.90
2018-08-20T16:54:32.302Z,27.91
2018-08-20T16:57:00.588Z,27.84
2018-08-20T16:59:29.476Z,27.71
2018-08-20T17:01:57.740Z,27.80
2018-08-20T17:04:33.063Z,27.55
2018-08-20T17:07:02.337Z,27.55
2018-08-20T17:09:30.590Z,27.70
2018-08-20T17:11:58.894Z,27.61
2018-08-20T17:14:27.077Z,27.53
2018-08-20T17:16:55.475Z,27.38
2018-08-20T17:19:23.696Z,27.42
2018-08-20T17:21:51.911Z,27.27
2018-08-20T17:24:25.246Z,27.26
2018-08-20T17:26:53.511Z,27.35
2018-08-20T17:29:23.015Z,27.25
2018-08-20T17:31:51.238Z,27.28
2018-08-20T17:34:19.448Z,27.21
2018-08-20T17:36:47.646Z,27.04
2018-08-20T17:39:15.927Z,27.01
2018-08-20T17:41:44.142Z,27.10
2018-08-20T17:44:12.360Z,26.98
2018-08-20T17:46:40.788Z,26.94
2018-08-20T17:49:11.723Z,26.99
2018-08-20T17:51:39.923Z,26.90
2018-08-20T17:54:08.123Z,26.82
2018-08-20T17:56:36.351Z,26.85
2018-08-20T17:59:10.626Z,26.84
2018-08-20T18:01:38.866Z,26.84
2018-08-20T18:04:07.478Z,26.76
2018-08-20T18:06:47.168Z,26.71
2018-08-20T18:09:15.458Z,26.59
2018-08-20T18:11:49.671Z,26.62
2018-08-20T18:14:18.968Z,26.54
2018-08-20T18:16:47.169Z,26.54
2018-08-20T18:19:15.663Z,26.46
2018-08-20T18:21:43.882Z,26.47
2018-08-20T18:24:13.245Z,26.39
2018-08-20T18:26:44.611Z,26.17
2018-08-20T18:29:12.998Z,26.25
2018-08-20T18:31:41.275Z,26.21
2018-08-20T18:34:09.498Z,26.23
2018-08-20T18:36:37.761Z,26.07
2018-08-20T18:39:10.675Z,26.08
2018-08-20T18:42:13.774Z,26.00
2018-08-20T18:44:42.005Z,25.92
2018-08-20T18:47:15.437Z,25.90
2018-08-20T18:49:52.684Z,25.87
2018-08-20T18:52:22.079Z,25.93
2018-08-20T18:54:51.603Z,25.76
2018-08-20T18:57:22.104Z,25.69
2018-08-20T18:59:50.682Z,25.73
2018-08-20T19:02:39.710Z,25.73
2018-08-20T19:05:12.467Z,25.57
2018-08-20T19:07:40.866Z,25.48
2018-08-20T19:10:12.812Z,25.36
2018-08-20T19:12:48.849Z,25.27
2018-08-20T19:15:27.571Z,25.23
2018-08-20T19:17:55.815Z,25.14
2018-08-20T19:20:24.041Z,24.98
2018-08-20T19:22:52.267Z,24.82
2018-08-20T19:25:20.446Z,24.78
2018-08-20T19:27:48.682Z,24.60
2018-08-20T19:30:23.455Z,24.52
2018-08-20T19:32:51.735Z,24.45
2018-08-20T19:35:19.959Z,24.39
2018-08-20T19:37:48.580Z,24.27
2018-08-20T19:40:16.875Z,24.16
2018-08-20T19:42:45.075Z,24.09
2018-08-20T19:45:13.914Z,24.02
2018-08-20T19:47:42.118Z,24.04
2018-08-20T19:50:11.736Z,24.00
2018-08-20T19:52:40.056Z,23.88
2018-08-20T19:55:10.755Z,23.93
2018-08-20T19:57:38.983Z,24.11
2018-08-20T20:00:10.958Z,24.09
2018-08-20T20:02:41.087Z,24.13
2018-08-20T20:05:10.902Z,24.19
2018-08-20T20:07:39.166Z,24.15
2018-08-20T20:10:11.230Z,23.98
2018-08-20T20:12:43.589Z,24.04
2018-08-20T20:15:11.803Z,24.06
2018-08-20T20:17:40.043Z,24.02
2018-08-20T20:20:08.263Z,24.06
2018-08-20T20:22:37.991Z,24.06
2018-08-20T20:25:06.693Z,24.02
2018-08-20T20:27:35.139Z,23.99
2018-08-20T20:30:03.484Z,23.98
2018-08-20T20:32:31.746Z,23.79
2018-08-20T20:35:00.198Z,23.82
2018-08-20T20:37:28.516Z,23.88
2018-08-20T20:39:58.812Z,23.93
2018-08-20T20:42:27.410Z,23.93
2018-08-20T20:44:55.778Z,23.86
2018-08-20T20:47:24.043Z,23.86
2018-08-20T20:49:52.483Z,23.82
2018-08-20T20:52:20.817Z,23.82
2018-08-20T20:54:49.033Z,23.86
2018-08-20T20:57:17.310Z,23.60
2018-08-20T20:59:45.643Z,23.65
2018-08-20T21:02:13.843Z,23.58
2018-08-20T21:04:42.083Z,23.38
2018-08-20T21:07:10.354Z,23.38
2018-08-20T21:09:43.887Z,23.25
2018-08-20T21:15:12.816Z,23.37
2018-08-20T21:17:41.508Z,23.30
2018-08-20T21:20:09.838Z,23.28
2018-08-20T21:22:39.584Z,23.20
2018-08-20T21:25:09.170Z,23.44
2018-08-20T21:27:37.386Z,23.20
2018-08-20T21:30:12.960Z,22.83
2018-08-20T21:32:47.015Z,22.99
2018-08-20T21:35:15.611Z,23.04
2018-08-20T21:37:47.391Z,23.01
2018-08-20T21:40:19.775Z,22.92
2018-08-20T21:42:47.982Z,22.83
2018-08-20T21:45:16.295Z,22.70
2018-08-20T21:47:44.558Z,22.65
2018-08-20T21:50:12.791Z,22.55
2018-08-20T21:52:40.987Z,22.46
2018-08-20T21:57:58.075Z,22.45
2018-08-20T22:00:27.326Z,22.55
2018-08-20T22:02:58.554Z,22.52
2018-08-20T22:05:27.150Z,22.53
2018-08-20T22:07:58.280Z,22.56
2018-08-20T22:10:27.870Z,22.55
2018-08-20T22:12:56.187Z,22.57
2018-08-20T22:15:24.462Z,22.54
2018-08-20T22:17:52.735Z,22.52
2018-08-20T22:20:20.987Z,22.42
2018-08-20T22:22:49.235Z,22.23
2018-08-20T22:25:17.455Z,22.05
2018-08-20T22:27:50.951Z,22.02
2018-08-20T22:30:19.215Z,21.89
2018-08-20T22:32:47.485Z,21.90
2018-08-20T22:35:20.729Z,22.05
2018-08-20T22:37:51.268Z,21.99
2018-08-20T22:40:20.295Z,21.78
2018-08-20T22:42:51.132Z,21.69
2018-08-20T22:45:20.315Z,21.65
2018-08-20T22:47:49.563Z,21.65
2018-08-20T22:50:17.945Z,21.60
2018-08-20T22:52:47.878Z,21.73
2018-08-20T22:55:17.406Z,21.89
2018-08-20T22:58:17.574Z,21.83
2018-08-20T23:00:45.847Z,21.73
2018-08-20T23:03:14.052Z,21.77
2018-08-20T23:05:42.298Z,21.86
2018-08-20T23:08:15.858Z,21.90
2018-08-20T23:10:44.170Z,21.80
2018-08-20T23:13:12.429Z,21.66
2018-08-20T23:15:40.783Z,21.59
2018-08-20T23:18:09.038Z,21.56
2018-08-20T23:20:37.322Z,21.55
2018-08-20T23:23:05.549Z,21.52
2018-08-20T23:25:33.965Z,21.48
2018-08-20T23:28:11.009Z,21.43
2018-08-20T23:30:40.787Z,21.45
2018-08-20T23:33:09.701Z,21.58
2018-08-20T23:35:37.910Z,21.50
2018-08-20T23:38:06.115Z,21.43
2018-08-20T23:40:34.382Z,21.42
2018-08-20T23:43:02.655Z,21.30
2018-08-20T23:45:37.391Z,21.32
2018-08-20T23:48:05.670Z,21.27
2018-08-20T23:50:33.937Z,21.24
2018-08-20T23:53:02.150Z,21.41
2018-08-20T23:55:30.453Z,21.45
2018-08-20T23:57:58.723Z,21.44
